Accueil
METAR-TAF:

METAR-TAF

Aéroports :

Aéroport de Kristiansand Kjevik

Kristiansand, Norvège

latitude: 58-12N, longitude: 008-05E, altitude: 1 m

Observation

Le bulletin a été fait il y a 29 minutes, à 14:20 UTC
Vent 11 kt de sud
Température 12°C
Humidité 82%
Pression 1017 hPa
Visibilité 10 km ou plus
Nuages fragmentés à une hauteur de 3000 ft

METAR: ENCN 121420Z 18011KT 9999 BKN030 12/09 Q1017

Heure: 16:49 (14:49 UTC)

Prévision

Le bulletin a été fait il y a 49 minutes, à 14:00 UTC
Prévision valable du 12 à 15 UTC au 12 à 22 UTC
Vent 7 kt de sud/sud-ouest
Visibilité 10 km ou plus
Nuages fragmentés à une hauteur de 2500 ft
Probabilité 40%
du 12 à 20 UTC au 12 à 22 UTC
Visibilité: 0800 m
à une hauteur de 200 ft
brouillard,

TAF: ENCN 121400Z 1215/1222 20007KT 9999 BKN025 PROB40 1220/1222 0800 FG VV002

Observations et prévisions météorologiques de plus de 4000 aéroports (messages METAR et TAF).

Les stations disponibles sont représentées par des disques jaunes et rouges sur la carte.

Passer la souris dessus pour voir le nom de la station.

Cliquer dessus pour voir les observations et prévisions météorologiques.

Pour changer de carte: cliquez sur les boutons verts avec une croix noire pour zoomer, sur le bouton vert avec un tiret pour effectuer un zoom arrière, ou sur les flèches vertes pour les cartes adjacentes.


METAR-TAF: